V.a. San Pedro — WAW957 — position and weather

sailwx.info

Track history (hours):
 
Tides and Currents Weather Stations Pressure Air Temp Water Temp Dewpoint Dewpoint Depression Visibility Wind Speed Wind Dir Waves Ship Positions

V.a. San Pedro

Last reported at 2018-Apr-22 23:28 UTC. Time now 2018-Apr-23 15:22 UTC.
Position N 33°43' W 118°17'.

Length 10 m.

Type: Towing. MMSI: 338181878.

Date/timePositionNaut miles runAvg speedWind from/ knotsBaromVisibWave heightAir tempDewpointWater temp
2018-Apr-22 23:28N 33°43' W 118°17'0 1.0
2018-Apr-22 23:00N 33°44' W 118°17'1 0.0
2018-Apr-22 02:44N 33°43' W 118°16'1 3.3
2018-Apr-22 02:30N 33°44' W 118°15'3 5.1
2018-Apr-22 01:58N 33°46' W 118°13'4 3.1
2018-Apr-22 00:43N 33°43' W 118°17'1 2.3
2018-Apr-22 00:30N 33°44' W 118°16'3 5.5
2018-Apr-22 00:00N 33°46' W 118°15'1 1.5
2018-Apr-21 23:30N 33°46' W 118°14'3 5.8
2018-Apr-21 22:59N 33°43' W 118°14'2 0.1
2018-Apr-20 22:29N 33°43' W 118°17'0 0.0
2018-Apr-20 21:59N 33°43' W 118°17'0 0.0
2018-Apr-20 21:29N 33°43' W 118°17'0 0.0
2018-Apr-20 20:47N 33°43' W 118°17'  
2018-Apr-18 15:43N 33°43' W 118°17'0 0.0
2018-Apr-18 15:25N 33°43' W 118°17'0 0.0
2018-Apr-18 01:25N 33°43' W 118°17'0 0.0
2018-Apr-18 00:58N 33°43' W 118°17'0 0.0
2018-Apr-18 00:28N 33°43' W 118°17'1 0.3
2018-Apr-17 19:01N 33°42' W 118°17'0 6.3
2018-Apr-17 19:00N 33°42' W 118°17'2 4.2
2018-Apr-17 18:30N 33°44' W 118°17'1 1.2
2018-Apr-17 17:54N 33°43' W 118°17'0 0.0
2018-Apr-17 17:24N 33°43' W 118°17'0 0.0
2018-Apr-17 17:00N 33°43' W 118°17'0 0.0
2018-Apr-17 02:30N 33°43' W 118°17'0 0.0
2018-Apr-17 01:54N 33°43' W 118°17'0 0.0
2018-Apr-17 01:24N 33°43' W 118°17'0 0.0
2018-Apr-17 01:00N 33°43' W 118°17'0 0.0
2018-Apr-17 00:30N 33°43' W 118°17'0 0.0
2018-Apr-16 23:54N 33°43' W 118°17'0 0.0
2018-Apr-16 23:30N 33°43' W 118°17'0 0.4
2018-Apr-16 23:00N 33°43' W 118°17'2 3.8
2018-Apr-16 22:30N 33°45' W 118°16'1 2.7
2018-Apr-16 21:58N 33°46' W 118°15'2 3.5
2018-Apr-16 21:30N 33°45' W 118°16'1 2.6
2018-Apr-16 21:00N 33°44' W 118°15'0 0.9
2018-Apr-16 20:30N 33°44' W 118°15'0 0.0
2018-Apr-16 20:00N 33°44' W 118°15'2 3.2
2018-Apr-16 19:28N 33°43' W 118°17'0 0.2
2018-Apr-16 18:27N 33°43' W 118°17'0 0.0
2018-Apr-16 17:57N 33°43' W 118°17'0 0.0
2018-Apr-16 17:15N 33°43' W 118°17'0 0.0
2018-Apr-16 16:57N 33°43' W 118°17'0 0.0
2018-Apr-16 16:27N 33°43' W 118°17'0 0.0
2018-Apr-16 15:57N 33°43' W 118°17'0 0.0
2018-Apr-16 15:27N 33°43' W 118°17'0 0.0
2018-Apr-16 14:09N 33°43' W 118°17'0 0.0
2018-Apr-16 13:45N 33°43' W 118°17'0 0.0
2018-Apr-16 02:09N 33°43' W 118°17'0 0.0
2018-Apr-16 01:45N 33°43' W 118°17'0 0.0
2018-Apr-16 01:27N 33°43' W 118°17'0 0.0
2018-Apr-16 00:57N 33°43' W 118°17'0 0.0
2018-Apr-16 00:27N 33°43' W 118°17'0 0.0
2018-Apr-15 23:57N 33°43' W 118°17'0 0.0
2018-Apr-15 23:21N 33°43' W 118°17'0 0.0
2018-Apr-15 22:45N 33°43' W 118°17'0 0.0
2018-Apr-15 22:27N 33°43' W 118°17'0 0.0
2018-Apr-15 21:51N 33°43' W 118°17'0 0.0
2018-Apr-15 21:27N 33°43' W 118°17'0 0.0
2018-Apr-15 20:57N 33°43' W 118°17'0 0.0
2018-Apr-15 20:21N 33°43' W 118°17'0 0.0
2018-Apr-15 19:57N 33°43' W 118°17'0 0.0
2018-Apr-15 18:27N 33°43' W 118°17'0 0.0
2018-Apr-15 17:57N 33°43' W 118°17'0 0.0
2018-Apr-15 17:15N 33°43' W 118°17'0 0.0
2018-Apr-15 16:45N 33°43' W 118°17'0 0.0
2018-Apr-15 16:21N 33°43' W 118°17'0 0.0
2018-Apr-15 15:57N 33°43' W 118°17'0 0.0
2018-Apr-15 02:09N 33°43' W 118°17'0 0.3
2018-Apr-15 02:00N 33°43' W 118°17'0 0.0
2018-Apr-14 18:23N 33°43' W 118°17'1 2.6
2018-Apr-14 18:01N 33°43' W 118°16'1 0.0
2018-Apr-13 22:18N 33°43' W 118°17'1 1.2
2018-Apr-13 21:43N 33°43' W 118°16'1 7.0
2018-Apr-13 21:30N 33°43' W 118°14'3 6.6
2018-Apr-13 21:00N 33°44' W 118°11'1 1.3
2018-Apr-13 20:14N 33°45' W 118°11'311.6
2018-Apr-13 19:57N 33°43' W 118°14'2 0.1
2018-Apr-13 00:12N 33°43' W 118°17'  
Track history (hours):
 
Tides and Currents Weather Stations Pressure Air Temp Water Temp Dewpoint Dewpoint Depression Visibility Wind Speed Wind Dir Waves Ship Positions

V.a. San Pedro

Last reported at 2018-Apr-22 23:28 UTC. Time now 2018-Apr-23 15:22 UTC.
Position N 33°43' W 118°17'.

Length 10 m.

Type: Towing. MMSI: 338181878.

Date/timePositionNaut miles runAvg speedWind from/ knotsBaromVisibWave heightAir tempDewpointWater temp
2018-Apr-22 23:28N 33°43' W 118°17'0 1.0
2018-Apr-22 23:00N 33°44' W 118°17'1 0.0
2018-Apr-22 02:44N 33°43' W 118°16'1 3.3
2018-Apr-22 02:30N 33°44' W 118°15'3 5.1
2018-Apr-22 01:58N 33°46' W 118°13'4 3.1
2018-Apr-22 00:43N 33°43' W 118°17'1 2.3
2018-Apr-22 00:30N 33°44' W 118°16'3 5.5
2018-Apr-22 00:00N 33°46' W 118°15'1 1.5
2018-Apr-21 23:30N 33°46' W 118°14'3 5.8
2018-Apr-21 22:59N 33°43' W 118°14'2 0.1
2018-Apr-20 22:29N 33°43' W 118°17'0 0.0
2018-Apr-20 21:59N 33°43' W 118°17'0 0.0
2018-Apr-20 21:29N 33°43' W 118°17'0 0.0
2018-Apr-20 20:47N 33°43' W 118°17'  
2018-Apr-18 15:43N 33°43' W 118°17'0 0.0
2018-Apr-18 15:25N 33°43' W 118°17'0 0.0
2018-Apr-18 01:25N 33°43' W 118°17'0 0.0
2018-Apr-18 00:58N 33°43' W 118°17'0 0.0
2018-Apr-18 00:28N 33°43' W 118°17'1 0.3
2018-Apr-17 19:01N 33°42' W 118°17'0 6.3
2018-Apr-17 19:00N 33°42' W 118°17'2 4.2
2018-Apr-17 18:30N 33°44' W 118°17'1 1.2
2018-Apr-17 17:54N 33°43' W 118°17'0 0.0
2018-Apr-17 17:24N 33°43' W 118°17'0 0.0
2018-Apr-17 17:00N 33°43' W 118°17'0 0.0
2018-Apr-17 02:30N 33°43' W 118°17'0 0.0
2018-Apr-17 01:54N 33°43' W 118°17'0 0.0
2018-Apr-17 01:24N 33°43' W 118°17'0 0.0
2018-Apr-17 01:00N 33°43' W 118°17'0 0.0
2018-Apr-17 00:30N 33°43' W 118°17'0 0.0
2018-Apr-16 23:54N 33°43' W 118°17'0 0.0
2018-Apr-16 23:30N 33°43' W 118°17'0 0.4
2018-Apr-16 23:00N 33°43' W 118°17'2 3.8
2018-Apr-16 22:30N 33°45' W 118°16'1 2.7
2018-Apr-16 21:58N 33°46' W 118°15'2 3.5
2018-Apr-16 21:30N 33°45' W 118°16'1 2.6
2018-Apr-16 21:00N 33°44' W 118°15'0 0.9
2018-Apr-16 20:30N 33°44' W 118°15'0 0.0
2018-Apr-16 20:00N 33°44' W 118°15'2 3.2
2018-Apr-16 19:28N 33°43' W 118°17'0 0.2
2018-Apr-16 18:27N 33°43' W 118°17'0 0.0
2018-Apr-16 17:57N 33°43' W 118°17'0 0.0
2018-Apr-16 17:15N 33°43' W 118°17'0 0.0
2018-Apr-16 16:57N 33°43' W 118°17'0 0.0
2018-Apr-16 16:27N 33°43' W 118°17'0 0.0
2018-Apr-16 15:57N 33°43' W 118°17'0 0.0
2018-Apr-16 15:27N 33°43' W 118°17'0 0.0
2018-Apr-16 14:09N 33°43' W 118°17'0 0.0
2018-Apr-16 13:45N 33°43' W 118°17'0 0.0
2018-Apr-16 02:09N 33°43' W 118°17'0 0.0
2018-Apr-16 01:45N 33°43' W 118°17'0 0.0
2018-Apr-16 01:27N 33°43' W 118°17'0 0.0
2018-Apr-16 00:57N 33°43' W 118°17'0 0.0
2018-Apr-16 00:27N 33°43' W 118°17'0 0.0
2018-Apr-15 23:57N 33°43' W 118°17'0 0.0
2018-Apr-15 23:21N 33°43' W 118°17'0 0.0
2018-Apr-15 22:45N 33°43' W 118°17'0 0.0
2018-Apr-15 22:27N 33°43' W 118°17'0 0.0
2018-Apr-15 21:51N 33°43' W 118°17'0 0.0
2018-Apr-15 21:27N 33°43' W 118°17'0 0.0
2018-Apr-15 20:57N 33°43' W 118°17'0 0.0
2018-Apr-15 20:21N 33°43' W 118°17'0 0.0
2018-Apr-15 19:57N 33°43' W 118°17'0 0.0
2018-Apr-15 18:27N 33°43' W 118°17'0 0.0
2018-Apr-15 17:57N 33°43' W 118°17'0 0.0
2018-Apr-15 17:15N 33°43' W 118°17'0 0.0
2018-Apr-15 16:45N 33°43' W 118°17'0 0.0
2018-Apr-15 16:21N 33°43' W 118°17'0 0.0
2018-Apr-15 15:57N 33°43' W 118°17'0 0.0
2018-Apr-15 02:09N 33°43' W 118°17'0 0.3
2018-Apr-15 02:00N 33°43' W 118°17'0 0.0
2018-Apr-14 18:23N 33°43' W 118°17'1 2.6
2018-Apr-14 18:01N 33°43' W 118°16'1 0.0
2018-Apr-13 22:18N 33°43' W 118°17'1 1.2
2018-Apr-13 21:43N 33°43' W 118°16'1 7.0
2018-Apr-13 21:30N 33°43' W 118°14'3 6.6
2018-Apr-13 21:00N 33°44' W 118°11'1 1.3
2018-Apr-13 20:14N 33°45' W 118°11'311.6
2018-Apr-13 19:57N 33°43' W 118°14'2 0.1
2018-Apr-13 00:12N 33°43' W 118°17'  

Dump ship's entire track history